sensor_id;sensor_type;location;lat;lon;timestamp;pressure;altitude;pressure_sealevel;temperature;humidity
70133;BME280;57495;49.922;7.966;2023-12-22T00:01:38;98574.28;;;5.05;100.00
70133;BME280;57495;49.922;7.966;2023-12-22T00:03:40;98583.09;;;4.96;100.00
70133;BME280;57495;49.922;7.966;2023-12-22T00:05:42;98563.03;;;4.93;100.00
70133;BME280;57495;49.922;7.966;2023-12-22T00:07:43;98563.75;;;4.86;100.00
70133;BME280;57495;49.922;7.966;2023-12-22T00:09:44;98572.13;;;4.91;100.00
70133;BME280;57495;49.922;7.966;2023-12-22T00:11:46;98574.47;;;4.94;100.00
70133;BME280;57495;49.922;7.966;2023-12-22T00:13:47;98562.47;;;4.90;100.00
70133;BME280;57495;49.922;7.966;2023-12-22T00:15:49;98561.78;;;4.88;100.00
70133;BME280;57495;49.922;7.966;2023-12-22T00:17:50;98569.06;;;4.86;100.00
70133;BME280;57495;49.922;7.966;2023-12-22T00:19:54;98555.88;;;4.47;100.00
70133;BME280;57495;49.922;7.966;2023-12-22T00:22:00;98562.69;;;4.20;100.00
70133;BME280;57495;49.922;7.966;2023-12-22T00:24:00;98546.81;;;4.39;100.00
70133;BME280;57495;49.922;7.966;2023-12-22T00:26:02;98546.53;;;4.42;100.00
70133;BME280;57495;49.922;7.966;2023-12-22T00:28:03;98537.34;;;4.47;100.00
70133;BME280;57495;49.922;7.966;2023-12-22T00:30:06;98521.47;;;4.47;100.00
70133;BME280;57495;49.922;7.966;2023-12-22T00:32:07;98513.53;;;4.47;100.00
70133;BME280;57495;49.922;7.966;2023-12-22T00:34:09;98521.31;;;4.48;100.00
70133;BME280;57495;49.922;7.966;2023-12-22T00:36:10;98516.16;;;4.47;100.00
70133;BME280;57495;49.922;7.966;2023-12-22T00:38:13;98504.75;;;4.36;100.00
70133;BME280;57495;49.922;7.966;2023-12-22T00:40:14;98507.94;;;4.40;100.00
70133;BME280;57495;49.922;7.966;2023-12-22T00:42:15;98508.09;;;4.38;100.00
70133;BME280;57495;49.922;7.966;2023-12-22T00:44:17;98505.06;;;4.04;100.00
70133;BME280;57495;49.922;7.966;2023-12-22T00:46:18;98516.31;;;4.16;100.00
70133;BME280;57495;49.922;7.966;2023-12-22T00:48:20;98504.75;;;4.07;100.00
70133;BME280;57495;49.922;7.966;2023-12-22T00:50:21;98503.91;;;4.16;100.00
70133;BME280;57495;49.922;7.966;2023-12-22T00:52:23;98527.19;;;4.32;100.00
70133;BME280;57495;49.922;7.966;2023-12-22T00:54:25;98558.38;;;4.48;100.00
70133;BME280;57495;49.922;7.966;2023-12-22T00:56:28;98579.97;;;4.63;100.00
70133;BME280;57495;49.922;7.966;2023-12-22T00:58:29;98585.75;;;4.96;100.00
70133;BME280;57495;49.922;7.966;2023-12-22T01:00:31;98573.25;;;4.78;100.00
70133;BME280;57495;49.922;7.966;2023-12-22T01:02:32;98592.34;;;4.72;100.00
70133;BME280;57495;49.922;7.966;2023-12-22T01:04:33;98571.97;;;4.82;100.00
70133;BME280;57495;49.922;7.966;2023-12-22T01:06:37;98567.50;;;4.93;100.00
70133;BME280;57495;49.922;7.966;2023-12-22T01:08:38;98538.06;;;4.96;100.00
70133;BME280;57495;49.922;7.966;2023-12-22T01:10:41;98545.59;;;5.00;100.00
70133;BME280;57495;49.922;7.966;2023-12-22T01:12:42;98542.50;;;5.05;100.00
70133;BME280;57495;49.922;7.966;2023-12-22T01:14:44;98532.16;;;5.12;100.00
70133;BME280;57495;49.922;7.966;2023-12-22T01:16:45;98534.97;;;5.10;100.00
70133;BME280;57495;49.922;7.966;2023-12-22T01:18:46;98535.94;;;5.09;100.00
70133;BME280;57495;49.922;7.966;2023-12-22T01:20:48;98550.56;;;5.13;100.00
70133;BME280;57495;49.922;7.966;2023-12-22T01:22:49;98554.88;;;5.14;100.00
70133;BME280;57495;49.922;7.966;2023-12-22T01:24:51;98549.97;;;5.19;100.00
70133;BME280;57495;49.922;7.966;2023-12-22T01:26:54;98556.38;;;5.27;100.00
70133;BME280;57495;49.922;7.966;2023-12-22T01:28:54;98552.44;;;5.31;100.00
70133;BME280;57495;49.922;7.966;2023-12-22T01:30:55;98549.91;;;5.39;100.00
70133;BME280;57495;49.922;7.966;2023-12-22T01:32:56;98561.06;;;5.42;100.00
70133;BME280;57495;49.922;7.966;2023-12-22T01:34:57;98561.75;;;5.45;100.00
70133;BME280;57495;49.922;7.966;2023-12-22T01:37:00;98569.56;;;5.46;100.00
70133;BME280;57495;49.922;7.966;2023-12-22T01:39:01;98560.63;;;5.47;100.00
70133;BME280;57495;49.922;7.966;2023-12-22T01:41:03;98576.25;;;5.50;100.00
70133;BME280;57495;49.922;7.966;2023-12-22T01:43:05;98572.69;;;5.59;100.00
70133;BME280;57495;49.922;7.966;2023-12-22T01:45:07;98571.41;;;5.64;100.00
70133;BME280;57495;49.922;7.966;2023-12-22T01:47:09;98586.06;;;5.68;100.00
70133;BME280;57495;49.922;7.966;2023-12-22T01:49:11;98595.38;;;5.72;100.00
70133;BME280;57495;49.922;7.966;2023-12-22T01:51:13;98618.97;;;5.75;100.00
70133;BME280;57495;49.922;7.966;2023-12-22T01:53:15;98626.91;;;5.75;100.00
70133;BME280;57495;49.922;7.966;2023-12-22T01:55:16;98617.63;;;5.61;100.00
70133;BME280;57495;49.922;7.966;2023-12-22T01:57:19;98613.50;;;5.49;100.00
70133;BME280;57495;49.922;7.966;2023-12-22T01:59:22;98613.50;;;5.49;100.00
70133;BME280;57495;49.922;7.966;2023-12-22T02:01:23;98618.34;;;5.53;100.00
70133;BME280;57495;49.922;7.966;2023-12-22T02:03:25;98616.09;;;5.58;100.00
70133;BME280;57495;49.922;7.966;2023-12-22T02:05:27;98609.81;;;5.59;100.00
70133;BME280;57495;49.922;7.966;2023-12-22T02:07:29;98618.97;;;5.75;100.00
70133;BME280;57495;49.922;7.966;2023-12-22T02:09:31;98608.47;;;5.83;100.00
70133;BME280;57495;49.922;7.966;2023-12-22T02:11:32;98624.75;;;5.88;100.00
70133;BME280;57495;49.922;7.966;2023-12-22T02:13:34;98637.03;;;5.89;100.00
70133;BME280;57495;49.922;7.966;2023-12-22T02:15:35;98632.88;;;5.87;100.00
70133;BME280;57495;49.922;7.966;2023-12-22T02:17:43;98619.50;;;5.78;100.00
70133;BME280;57495;49.922;7.966;2023-12-22T02:19:50;98622.97;;;5.79;100.00
70133;BME280;57495;49.922;7.966;2023-12-22T02:22:02;98616.72;;;5.80;100.00
70133;BME280;57495;49.922;7.966;2023-12-22T02:24:05;98615.88;;;5.79;100.00
70133;BME280;57495;49.922;7.966;2023-12-22T02:26:12;98612.09;;;5.82;100.00
70133;BME280;57495;49.922;7.966;2023-12-22T02:28:15;98593.53;;;5.82;100.00
70133;BME280;57495;49.922;7.966;2023-12-22T02:30:24;98599.22;;;5.87;100.00
70133;BME280;57495;49.922;7.966;2023-12-22T02:32:29;98600.72;;;5.90;100.00
70133;BME280;57495;49.922;7.966;2023-12-22T02:34:34;98613.03;;;5.91;100.00
70133;BME280;57495;49.922;7.966;2023-12-22T02:36:36;98618.34;;;5.91;100.00
70133;BME280;57495;49.922;7.966;2023-12-22T02:38:40;98621.53;;;5.94;100.00
70133;BME280;57495;49.922;7.966;2023-12-22T02:40:45;98612.72;;;5.94;100.00
70133;BME280;57495;49.922;7.966;2023-12-22T02:42:47;98611.88;;;5.93;100.00
70133;BME280;57495;49.922;7.966;2023-12-22T02:44:49;98623.50;;;5.92;100.00
70133;BME280;57495;49.922;7.966;2023-12-22T02:46:50;98621.94;;;5.90;100.00
70133;BME280;57495;49.922;7.966;2023-12-22T02:48:52;98632.56;;;5.90;100.00
70133;BME280;57495;49.922;7.966;2023-12-22T02:50:52;98640.66;;;5.88;100.00
70133;BME280;57495;49.922;7.966;2023-12-22T02:52:53;98625.44;;;5.90;100.00
70133;BME280;57495;49.922;7.966;2023-12-22T02:54:54;98606.50;;;5.85;100.00
70133;BME280;57495;49.922;7.966;2023-12-22T02:56:57;98598.28;;;5.78;100.00
70133;BME280;57495;49.922;7.966;2023-12-22T02:58:59;98593.44;;;5.74;100.00
70133;BME280;57495;49.922;7.966;2023-12-22T03:01:00;98586.06;;;5.68;100.00
70133;BME280;57495;49.922;7.966;2023-12-22T03:03:02;98600.00;;;5.70;100.00
70133;BME280;57495;49.922;7.966;2023-12-22T03:05:04;98598.03;;;5.72;100.00
70133;BME280;57495;49.922;7.966;2023-12-22T03:07:05;98584.41;;;5.67;100.00
70133;BME280;57495;49.922;7.966;2023-12-22T03:09:06;98573.38;;;5.61;100.00
70133;BME280;57495;49.922;7.966;2023-12-22T03:11:08;98577.69;;;5.62;100.00
70133;BME280;57495;49.922;7.966;2023-12-22T03:13:10;98573.09;;;5.65;100.00
70133;BME280;57495;49.922;7.966;2023-12-22T03:15:11;98566.94;;;5.64;100.00
70133;BME280;57495;49.922;7.966;2023-12-22T03:17:13;98583.00;;;5.62;100.00
70133;BME280;57495;49.922;7.966;2023-12-22T03:19:14;98588.31;;;5.62;100.00
70133;BME280;57495;49.922;7.966;2023-12-22T03:21:18;98607.41;;;5.66;100.00
70133;BME280;57495;49.922;7.966;2023-12-22T03:23:20;98622.78;;;5.62;100.00
70133;BME280;57495;49.922;7.966;2023-12-22T03:25:20;98623.22;;;5.58;100.00
70133;BME280;57495;49.922;7.966;2023-12-22T03:27:22;98619.06;;;5.46;100.00
70133;BME280;57495;49.922;7.966;2023-12-22T03:29:25;98622.72;;;5.35;100.00
70133;BME280;57495;49.922;7.966;2023-12-22T03:31:26;98638.53;;;5.27;100.00
70133;BME280;57495;49.922;7.966;2023-12-22T03:33:26;98652.22;;;5.22;100.00
70133;BME280;57495;49.922;7.966;2023-12-22T03:35:28;98642.44;;;5.22;100.00
70133;BME280;57495;49.922;7.966;2023-12-22T03:37:29;98626.81;;;5.19;100.00
70133;BME280;57495;49.922;7.966;2023-12-22T03:39:30;98645.38;;;5.19;100.00
70133;BME280;57495;49.922;7.966;2023-12-22T03:41:32;98630.63;;;5.17;100.00
70133;BME280;57495;49.922;7.966;2023-12-22T03:43:34;98617.47;;;5.25;100.00
70133;BME280;57495;49.922;7.966;2023-12-22T03:45:37;98614.97;;;5.23;100.00
70133;BME280;57495;49.922;7.966;2023-12-22T03:47:38;98619.56;;;5.21;100.00
70133;BME280;57495;49.922;7.966;2023-12-22T03:49:39;98625.00;;;5.20;100.00
70133;BME280;57495;49.922;7.966;2023-12-22T03:51:41;98640.78;;;5.21;100.00
70133;BME280;57495;49.922;7.966;2023-12-22T03:53:42;98594.06;;;5.20;100.00
70133;BME280;57495;49.922;7.966;2023-12-22T03:55:44;98599.38;;;5.20;100.00
70133;BME280;57495;49.922;7.966;2023-12-22T03:57:45;98589.72;;;5.19;100.00
70133;BME280;57495;49.922;7.966;2023-12-22T03:59:46;98600.78;;;5.15;100.00
70133;BME280;57495;49.922;7.966;2023-12-22T04:01:52;98615.53;;;5.17;100.00
70133;BME280;57495;49.922;7.966;2023-12-22T04:03:55;98605.53;;;5.11;100.00
70133;BME280;57495;49.922;7.966;2023-12-22T04:05:56;98613.16;;;5.14;100.00
70133;BME280;57495;49.922;7.966;2023-12-22T04:07:58;98616.38;;;5.18;100.00
70133;BME280;57495;49.922;7.966;2023-12-22T04:09:59;98614.16;;;5.13;100.00
70133;BME280;57495;49.922;7.966;2023-12-22T04:12:01;98603.28;;;5.16;100.00
70133;BME280;57495;49.922;7.966;2023-12-22T04:14:02;98620.84;;;5.17;100.00
70133;BME280;57495;49.922;7.966;2023-12-22T04:16:04;98617.06;;;5.20;100.00
70133;BME280;57495;49.922;7.966;2023-12-22T04:18:07;98614.28;;;5.21;100.00
70133;BME280;57495;49.922;7.966;2023-12-22T04:20:08;98615.38;;;5.29;100.00
70133;BME280;57495;49.922;7.966;2023-12-22T04:22:09;98620.53;;;5.30;100.00
70133;BME280;57495;49.922;7.966;2023-12-22T04:24:10;98623.88;;;5.32;100.00
70133;BME280;57495;49.922;7.966;2023-12-22T04:26:11;98624.41;;;5.36;100.00
70133;BME280;57495;49.922;7.966;2023-12-22T04:28:13;98627.75;;;5.38;100.00
70133;BME280;57495;49.922;7.966;2023-12-22T04:30:14;98627.75;;;5.38;100.00
70133;BME280;57495;49.922;7.966;2023-12-22T04:32:15;98629.00;;;5.43;100.00
70133;BME280;57495;49.922;7.966;2023-12-22T04:34:18;98609.47;;;5.45;100.00
70133;BME280;57495;49.922;7.966;2023-12-22T04:36:20;98644.16;;;5.51;100.00
70133;BME280;57495;49.922;7.966;2023-12-22T04:38:21;98636.69;;;5.74;100.00
70133;BME280;57495;49.922;7.966;2023-12-22T04:40:23;98638.06;;;5.78;100.00
70133;BME280;57495;49.922;7.966;2023-12-22T04:42:24;98630.78;;;5.80;100.00
70133;BME280;57495;49.922;7.966;2023-12-22T04:44:26;98648.78;;;5.87;100.00
70133;BME280;57495;49.922;7.966;2023-12-22T04:46:27;98655.22;;;5.84;100.00
70133;BME280;57495;49.922;7.966;2023-12-22T04:48:29;98648.41;;;5.81;100.00
70133;BME280;57495;49.922;7.966;2023-12-22T04:50:31;98646.63;;;5.72;100.00
70133;BME280;57495;49.922;7.966;2023-12-22T04:52:33;98666.59;;;5.67;100.00
70133;BME280;57495;49.922;7.966;2023-12-22T04:54:34;98666.19;;;5.61;100.00
70133;BME280;57495;49.922;7.966;2023-12-22T04:56:36;98634.41;;;5.52;100.00
70133;BME280;57495;49.922;7.966;2023-12-22T04:58:37;98665.97;;;5.45;100.00
70133;BME280;57495;49.922;7.966;2023-12-22T05:00:38;98645.63;;;5.36;100.00
70133;BME280;57495;49.922;7.966;2023-12-22T05:02:40;98647.72;;;5.32;100.00
70133;BME280;57495;49.922;7.966;2023-12-22T05:04:41;98655.13;;;5.29;100.00
70133;BME280;57495;49.922;7.966;2023-12-22T05:06:44;98651.78;;;5.27;100.00
70133;BME280;57495;49.922;7.966;2023-12-22T05:08:46;98640.34;;;5.26;100.00
70133;BME280;57495;49.922;7.966;2023-12-22T05:10:47;98642.44;;;5.22;100.00
70133;BME280;57495;49.922;7.966;2023-12-22T05:12:49;98642.03;;;5.17;100.00
70133;BME280;57495;49.922;7.966;2023-12-22T05:14:50;98634.78;;;5.19;100.00
70133;BME280;57495;49.922;7.966;2023-12-22T05:16:51;98634.50;;;5.22;100.00
70133;BME280;57495;49.922;7.966;2023-12-22T05:18:55;98647.34;;;5.17;100.00
70133;BME280;57495;49.922;7.966;2023-12-22T05:20:56;98645.38;;;5.19;100.00
70133;BME280;57495;49.922;7.966;2023-12-22T05:22:58;98634.78;;;5.19;100.00
70133;BME280;57495;49.922;7.966;2023-12-22T05:25:00;98637.28;;;5.21;100.00
70133;BME280;57495;49.922;7.966;2023-12-22T05:27:01;98638.81;;;5.23;100.00
70133;BME280;57495;49.922;7.966;2023-12-22T05:29:03;98648.44;;;5.25;100.00
70133;BME280;57495;49.922;7.966;2023-12-22T05:31:04;98644.53;;;5.29;100.00
70133;BME280;57495;49.922;7.966;2023-12-22T05:33:06;98657.63;;;5.30;100.00
70133;BME280;57495;49.922;7.966;2023-12-22T05:35:07;98654.03;;;5.31;100.00
70133;BME280;57495;49.922;7.966;2023-12-22T05:37:10;98657.19;;;5.35;100.00
70133;BME280;57495;49.922;7.966;2023-12-22T05:39:13;98673.22;;;5.43;100.00
70133;BME280;57495;49.922;7.966;2023-12-22T05:41:14;98667.06;;;5.52;100.00
70133;BME280;57495;49.922;7.966;2023-12-22T05:43:15;98667.06;;;5.52;100.00
70133;BME280;57495;49.922;7.966;2023-12-22T05:45:16;98663.00;;;5.58;100.00
70133;BME280;57495;49.922;7.966;2023-12-22T05:47:18;98659.22;;;5.60;100.00
70133;BME280;57495;49.922;7.966;2023-12-22T05:49:19;98658.78;;;5.65;100.00
70133;BME280;57495;49.922;7.966;2023-12-22T05:51:20;98653.63;;;5.64;100.00
70133;BME280;57495;49.922;7.966;2023-12-22T05:53:21;98657.25;;;5.62;100.00
70133;BME280;57495;49.922;7.966;2023-12-22T05:55:24;98671.50;;;5.61;100.00
70133;BME280;57495;49.922;7.966;2023-12-22T05:57:25;98668.41;;;5.66;100.00
70133;BME280;57495;49.922;7.966;2023-12-22T05:59:26;98670.91;;;5.68;100.00
70133;BME280;57495;49.922;7.966;2023-12-22T06:01:28;98676.91;;;5.70;100.00
70133;BME280;57495;49.922;7.966;2023-12-22T06:03:29;98668.66;;;5.73;100.00
70133;BME280;57495;49.922;7.966;2023-12-22T06:05:31;98684.00;;;5.79;100.00
70133;BME280;57495;49.922;7.966;2023-12-22T06:07:32;98704.09;;;5.81;100.00
70133;BME280;57495;49.922;7.966;2023-12-22T06:09:34;98688.59;;;5.87;100.00
70133;BME280;57495;49.922;7.966;2023-12-22T06:11:36;98688.13;;;5.91;100.00
70133;BME280;57495;49.922;7.966;2023-12-22T06:13:37;98685.34;;;5.93;100.00
70133;BME280;57495;49.922;7.966;2023-12-22T06:15:38;98691.72;;;6.10;100.00
70133;BME280;57495;49.922;7.966;2023-12-22T06:17:39;98702.31;;;6.10;100.00
70133;BME280;57495;49.922;7.966;2023-12-22T06:19:41;98689.34;;;6.07;100.00
70133;BME280;57495;49.922;7.966;2023-12-22T06:21:42;98693.53;;;6.09;100.00
70133;BME280;57495;49.922;7.966;2023-12-22T06:23:44;98691.44;;;6.13;100.00
70133;BME280;57495;49.922;7.966;2023-12-22T06:25:45;98681.03;;;6.19;100.00
70133;BME280;57495;49.922;7.966;2023-12-22T06:27:49;98692.19;;;6.23;100.00
70133;BME280;57495;49.922;7.966;2023-12-22T06:29:50;98687.97;;;6.30;100.00
70133;BME280;57495;49.922;7.966;2023-12-22T06:31:51;98686.38;;;6.37;100.00
70133;BME280;57495;49.922;7.966;2023-12-22T06:33:52;98683.34;;;6.32;100.00
70133;BME280;57495;49.922;7.966;2023-12-22T06:35:54;98685.47;;;6.29;100.00
70133;BME280;57495;49.922;7.966;2023-12-22T06:37:55;98689.66;;;6.31;100.00
70133;BME280;57495;49.922;7.966;2023-12-22T06:39:59;98697.38;;;6.25;100.00
70133;BME280;57495;49.922;7.966;2023-12-22T06:42:00;98691.50;;;6.21;100.00
70133;BME280;57495;49.922;7.966;2023-12-22T06:44:03;98700.84;;;6.25;100.00
70133;BME280;57495;49.922;7.966;2023-12-22T06:46:14;98697.81;;;6.20;100.00
70133;BME280;57495;49.922;7.966;2023-12-22T06:48:16;98701.44;;;6.19;100.00
70133;BME280;57495;49.922;7.966;2023-12-22T06:50:17;98705.38;;;6.15;100.00
70133;BME280;57495;49.922;7.966;2023-12-22T06:52:18;98698.09;;;6.17;100.00
70133;BME280;57495;49.922;7.966;2023-12-22T06:54:20;98698.78;;;6.19;100.00
70133;BME280;57495;49.922;7.966;2023-12-22T06:56:22;98701.72;;;6.16;100.00
70133;BME280;57495;49.922;7.966;2023-12-22T06:58:24;98706.50;;;6.12;100.00
70133;BME280;57495;49.922;7.966;2023-12-22T07:00:27;98710.00;;;6.13;100.00
70133;BME280;57495;49.922;7.966;2023-12-22T07:02:28;98710.69;;;6.15;100.00
70133;BME280;57495;49.922;7.966;2023-12-22T07:04:30;98702.88;;;6.13;100.00
70133;BME280;57495;49.922;7.966;2023-12-22T07:06:32;98707.34;;;6.13;100.00
70133;BME280;57495;49.922;7.966;2023-12-22T07:08:34;98714.31;;;6.14;100.00
70133;BME280;57495;49.922;7.966;2023-12-22T07:10:35;98711.22;;;6.18;100.00
70133;BME280;57495;49.922;7.966;2023-12-22T07:12:36;98712.88;;;6.29;100.00
70133;BME280;57495;49.922;7.966;2023-12-22T07:14:37;98707.03;;;6.44;100.00
70133;BME280;57495;49.922;7.966;2023-12-22T07:16:39;98716.97;;;6.42;100.00
70133;BME280;57495;49.922;7.966;2023-12-22T07:18:40;98713.09;;;6.36;100.00
70133;BME280;57495;49.922;7.966;2023-12-22T07:20:42;98727.59;;;6.42;100.00
70133;BME280;57495;49.922;7.966;2023-12-22T07:22:44;98721.75;;;6.38;100.00
70133;BME280;57495;49.922;7.966;2023-12-22T07:24:46;98727.31;;;6.45;100.00
70133;BME280;57495;49.922;7.966;2023-12-22T07:26:49;98716.00;;;6.43;100.00
70133;BME280;57495;49.922;7.966;2023-12-22T07:28:50;98745.44;;;6.49;100.00
70133;BME280;57495;49.922;7.966;2023-12-22T07:30:52;98748.03;;;6.59;100.00
70133;BME280;57495;49.922;7.966;2023-12-22T07:32:56;98757.38;;;6.63;100.00
70133;BME280;57495;49.922;7.966;2023-12-22T07:34:57;98759.22;;;6.63;100.00
70133;BME280;57495;49.922;7.966;2023-12-22T07:36:58;98763.22;;;6.67;100.00
70133;BME280;57495;49.922;7.966;2023-12-22T07:39:00;98769.38;;;6.67;100.00
70133;BME280;57495;49.922;7.966;2023-12-22T07:41:00;98770.06;;;6.69;100.00
70133;BME280;57495;49.922;7.966;2023-12-22T07:43:02;98772.72;;;6.69;100.00
70133;BME280;57495;49.922;7.966;2023-12-22T07:45:05;98774.69;;;6.67;100.00
70133;BME280;57495;49.922;7.966;2023-12-22T07:47:06;98779.16;;;6.67;100.00
70133;BME280;57495;49.922;7.966;2023-12-22T07:49:11;98770.34;;;6.66;100.00
70133;BME280;57495;49.922;7.966;2023-12-22T07:51:12;98777.88;;;6.71;100.00
70133;BME280;57495;49.922;7.966;2023-12-22T07:53:14;98781.69;;;6.68;100.00
70133;BME280;57495;49.922;7.966;2023-12-22T07:55:15;98786.69;;;6.71;100.00
70133;BME280;57495;49.922;7.966;2023-12-22T07:57:17;98789.47;;;6.70;100.00
70133;BME280;57495;49.922;7.966;2023-12-22T07:59:18;98781.38;;;6.71;100.00
70133;BME280;57495;49.922;7.966;2023-12-22T08:01:19;98782.06;;;6.73;100.00
70133;BME280;57495;49.922;7.966;2023-12-22T08:03:20;98784.34;;;6.68;100.00
70133;BME280;57495;49.922;7.966;2023-12-22T08:05:23;98790.78;;;6.66;100.00
70133;BME280;57495;49.922;7.966;2023-12-22T08:07:24;98780.28;;;6.64;100.00
70133;BME280;57495;49.922;7.966;2023-12-22T08:09:25;98783.63;;;6.66;100.00
70133;BME280;57495;49.922;7.966;2023-12-22T08:11:26;98789.25;;;6.63;100.00
70133;BME280;57495;49.922;7.966;2023-12-22T08:13:28;98778.78;;;6.62;100.00
70133;BME280;57495;49.922;7.966;2023-12-22T08:15:30;98775.28;;;6.61;100.00
70133;BME280;57495;49.922;7.966;2023-12-22T08:17:32;98771.28;;;6.57;100.00
70133;BME280;57495;49.922;7.966;2023-12-22T08:19:36;98766.63;;;6.59;100.00
70133;BME280;57495;49.922;7.966;2023-12-22T08:21:39;98779.91;;;6.59;100.00
70133;BME280;57495;49.922;7.966;2023-12-22T08:23:40;98780.34;;;6.54;100.00
70133;BME280;57495;49.922;7.966;2023-12-22T08:25:41;98785.91;;;6.61;100.00
70133;BME280;57495;49.922;7.966;2023-12-22T08:27:43;98793.28;;;6.67;100.00
70133;BME280;57495;49.922;7.966;2023-12-22T08:29:44;98802.22;;;6.66;100.00
70133;BME280;57495;49.922;7.966;2023-12-22T08:31:46;98801.50;;;6.74;100.00
70133;BME280;57495;49.922;7.966;2023-12-22T08:33:47;98804.88;;;6.66;100.00
70133;BME280;57495;49.922;7.966;2023-12-22T08:35:48;98804.00;;;6.75;100.00
70133;BME280;57495;49.922;7.966;2023-12-22T08:37:51;98802.03;;;6.77;100.00
70133;BME280;57495;49.922;7.966;2023-12-22T08:39:53;98806.22;;;6.80;100.00
70133;BME280;57495;49.922;7.966;2023-12-22T08:41:54;98800.63;;;6.83;100.00
70133;BME280;57495;49.922;7.966;2023-12-22T08:43:55;98794.84;;;6.88;100.00
70133;BME280;57495;49.922;7.966;2023-12-22T08:45:56;98785.28;;;6.95;100.00
70133;BME280;57495;49.922;7.966;2023-12-22T08:47:57;98782.00;;;7.01;100.00
70133;BME280;57495;49.922;7.966;2023-12-22T08:49:59;98787.88;;;7.05;100.00
70133;BME280;57495;49.922;7.966;2023-12-22T08:52:04;98777.75;;;7.08;100.00
70133;BME280;57495;49.922;7.966;2023-12-22T08:54:06;98782.63;;;7.13;100.00
70133;BME280;57495;49.922;7.966;2023-12-22T08:56:08;98769.88;;;7.16;100.00
70133;BME280;57495;49.922;7.966;2023-12-22T08:58:09;98779.22;;;7.21;100.00
70133;BME280;57495;49.922;7.966;2023-12-22T09:00:12;98776.84;;;7.18;100.00
70133;BME280;57495;49.922;7.966;2023-12-22T09:02:13;98779.38;;;7.19;100.00
70133;BME280;57495;49.922;7.966;2023-12-22T09:04:15;98784.25;;;7.24;100.00
70133;BME280;57495;49.922;7.966;2023-12-22T09:06:17;98798.38;;;7.24;100.00
70133;BME280;57495;49.922;7.966;2023-12-22T09:08:17;98795.22;;;7.29;100.00
70133;BME280;57495;49.922;7.966;2023-12-22T09:10:20;98795.56;;;7.26;100.00
70133;BME280;57495;49.922;7.966;2023-12-22T09:12:22;98799.44;;;7.31;100.00
70133;BME280;57495;49.922;7.966;2023-12-22T09:14:24;98799.28;;;7.33;100.00
70133;BME280;57495;49.922;7.966;2023-12-22T09:16:24;98805.28;;;7.35;100.00
70133;BME280;57495;49.922;7.966;2023-12-22T09:18:26;98800.31;;;7.40;100.00
70133;BME280;57495;49.922;7.966;2023-12-22T09:20:27;98802.81;;;7.42;100.00
70133;BME280;57495;49.922;7.966;2023-12-22T09:22:30;98797.75;;;7.48;100.00
70133;BME280;57495;49.922;7.966;2023-12-22T09:24:31;98803.28;;;7.55;100.00
70133;BME280;57495;49.922;7.966;2023-12-22T09:26:34;98810.75;;;7.51;100.00
70133;BME280;57495;49.922;7.966;2023-12-22T09:28:34;98815.06;;;7.52;100.00
70133;BME280;57495;49.922;7.966;2023-12-22T09:30:36;98812.09;;;7.55;100.00
70133;BME280;57495;49.922;7.966;2023-12-22T09:32:37;98804.94;;;7.56;100.00
70133;BME280;57495;49.922;7.966;2023-12-22T09:34:39;98797.19;;;7.63;100.00
70133;BME280;57495;49.922;7.966;2023-12-22T09:36:40;98801.38;;;7.65;100.00
70133;BME280;57495;49.922;7.966;2023-12-22T09:38:42;98803.88;;;7.67;100.00
70133;BME280;57495;49.922;7.966;2023-12-22T09:40:44;98787.69;;;7.86;100.00
70133;BME280;57495;49.922;7.966;2023-12-22T09:42:47;98798.03;;;7.89;100.00
70133;BME280;57495;49.922;7.966;2023-12-22T09:44:49;98792.88;;;7.88;100.00
70133;BME280;57495;49.922;7.966;2023-12-22T09:46:55;98784.59;;;7.91;100.00
70133;BME280;57495;49.922;7.966;2023-12-22T09:48:57;98781.41;;;7.87;100.00
70133;BME280;57495;49.922;7.966;2023-12-22T09:51:01;98790.06;;;7.89;100.00
70133;BME280;57495;49.922;7.966;2023-12-22T09:53:02;98789.09;;;7.90;100.00
70133;BME280;57495;49.922;7.966;2023-12-22T09:55:05;98776.44;;;7.92;100.00
70133;BME280;57495;49.922;7.966;2023-12-22T09:57:09;98781.28;;;7.97;100.00
70133;BME280;57495;49.922;7.966;2023-12-22T09:59:13;98775.81;;;7.99;100.00
70133;BME280;57495;49.922;7.966;2023-12-22T10:01:14;98784.16;;;8.04;100.00
70133;BME280;57495;49.922;7.966;2023-12-22T10:03:17;98781.13;;;7.99;100.00
70133;BME280;57495;49.922;7.966;2023-12-22T10:05:20;98773.00;;;8.00;100.00
70133;BME280;57495;49.922;7.966;2023-12-22T10:07:21;98773.53;;;8.04;100.00
70133;BME280;57495;49.922;7.966;2023-12-22T10:09:23;98766.06;;;8.07;100.00
70133;BME280;57495;49.922;7.966;2023-12-22T10:11:25;98773.03;;;8.08;100.00
70133;BME280;57495;49.922;7.966;2023-12-22T10:13:28;98768.91;;;8.14;100.00
70133;BME280;57495;49.922;7.966;2023-12-22T10:15:31;98772.88;;;8.10;100.00
70133;BME280;57495;49.922;7.966;2023-12-22T10:17:32;98753.94;;;8.13;100.00
70133;BME280;57495;49.922;7.966;2023-12-22T10:19:34;98749.94;;;8.09;100.00
70133;BME280;57495;49.922;7.966;2023-12-22T10:21:35;98750.94;;;8.16;100.00
70133;BME280;57495;49.922;7.966;2023-12-22T10:23:37;98748.97;;;8.18;100.00
70133;BME280;57495;49.922;7.966;2023-12-22T10:25:40;98748.28;;;8.16;100.00
70133;BME280;57495;49.922;7.966;2023-12-22T10:27:42;98741.97;;;8.17;100.00
70133;BME280;57495;49.922;7.966;2023-12-22T10:29:42;98749.81;;;8.19;100.00
70133;BME280;57495;49.922;7.966;2023-12-22T10:31:45;98747.00;;;8.20;100.00
70133;BME280;57495;49.922;7.966;2023-12-22T10:33:46;98732.50;;;8.23;100.00
70133;BME280;57495;49.922;7.966;2023-12-22T10:35:48;98733.00;;;8.18;100.00
70133;BME280;57495;49.922;7.966;2023-12-22T10:37:50;98721.19;;;8.21;100.00
70133;BME280;57495;49.922;7.966;2023-12-22T10:39:54;98722.16;;;8.20;100.00
70133;BME280;57495;49.922;7.966;2023-12-22T10:41:56;98715.22;;;8.27;100.00
70133;BME280;57495;49.922;7.966;2023-12-22T10:43:58;98721.03;;;8.22;100.00
70133;BME280;57495;49.922;7.966;2023-12-22T10:46:00;98708.69;;;8.21;100.00